createdAt,value
2017-09-27T00:00:50.587Z,54.0
2017-09-27T00:01:52.004Z,53.9
2017-09-27T00:02:53.423Z,53.2
2017-09-27T00:03:54.840Z,53.4
2017-09-27T00:04:56.260Z,53.1
2017-09-27T00:05:57.674Z,53.5
2017-09-27T00:06:59.104Z,53.6
2017-09-27T00:08:00.511Z,53.3
2017-09-27T00:09:01.928Z,53.3
2017-09-27T00:10:03.341Z,53.2
2017-09-27T00:11:04.760Z,53.5
2017-09-27T00:12:06.181Z,53.3
2017-09-27T00:13:07.597Z,53.5
2017-09-27T00:14:09.013Z,53.4
2017-09-27T00:15:10.433Z,53.4
2017-09-27T00:16:11.850Z,53.4
2017-09-27T00:17:13.267Z,53.4
2017-09-27T00:18:14.682Z,53.3
2017-09-27T00:19:16.100Z,53.3
2017-09-27T00:20:17.699Z,53.2
2017-09-27T00:21:19.119Z,53.5
2017-09-27T00:22:20.538Z,53.4
2017-09-27T00:23:21.958Z,53.3
2017-09-27T00:24:23.375Z,53.4
2017-09-27T00:25:24.790Z,53.2
2017-09-27T00:26:26.208Z,53.5
2017-09-27T00:27:27.623Z,53.6
2017-09-27T00:28:29.041Z,53.6
2017-09-27T00:29:30.458Z,53.8
2017-09-27T00:30:31.890Z,54.2
2017-09-27T00:31:33.307Z,53.1
2017-09-27T00:32:34.721Z,53.2
2017-09-27T00:33:36.137Z,53.3
2017-09-27T00:34:37.556Z,53.3
2017-09-27T00:35:38.973Z,53.2
2017-09-27T00:36:40.389Z,53.2
2017-09-27T00:37:41.805Z,53.2
2017-09-27T00:38:43.355Z,54.1
2017-09-27T00:39:44.773Z,53.9
2017-09-27T00:40:46.196Z,53.6
2017-09-27T00:41:47.610Z,53.2
2017-09-27T00:42:49.031Z,53.9
2017-09-27T00:43:50.448Z,53.2
2017-09-27T00:44:51.863Z,53.9
2017-09-27T00:45:53.285Z,53.9
2017-09-27T00:46:54.696Z,54.2
2017-09-27T00:47:56.113Z,54.0
2017-09-27T00:48:57.528Z,53.5
2017-09-27T00:49:58.945Z,53.9
2017-09-27T00:51:00.365Z,53.8
2017-09-27T00:52:01.783Z,54.1
2017-09-27T00:53:03.198Z,54.0
2017-09-27T00:54:04.619Z,54.0
2017-09-27T00:55:06.035Z,54.1
2017-09-27T00:56:07.451Z,53.7
2017-09-27T00:57:08.867Z,54.0
2017-09-27T00:58:10.286Z,54.0
2017-09-27T00:59:11.703Z,54.0
2017-09-27T01:00:13.118Z,53.7
2017-09-27T01:01:14.536Z,53.8
2017-09-27T01:02:15.948Z,53.7
2017-09-27T01:03:17.375Z,53.9
2017-09-27T01:04:18.782Z,53.7
2017-09-27T01:05:20.200Z,53.9
2017-09-27T01:06:21.614Z,53.9
2017-09-27T01:07:23.034Z,53.9
2017-09-27T01:08:24.450Z,53.9
2017-09-27T01:09:25.867Z,53.7
2017-09-27T01:10:27.283Z,53.7
2017-09-27T01:11:28.696Z,54.0
2017-09-27T01:12:30.112Z,53.7
2017-09-27T01:13:31.528Z,53.7
2017-09-27T01:14:32.958Z,53.9
2017-09-27T01:15:34.363Z,54.2
2017-09-27T01:16:35.776Z,53.8
2017-09-27T01:17:37.193Z,53.6
2017-09-27T01:18:38.607Z,53.6
2017-09-27T01:19:40.026Z,53.7
2017-09-27T01:20:41.446Z,54.2
2017-09-27T01:21:42.864Z,54.3
2017-09-27T01:22:44.284Z,53.6
2017-09-27T01:23:45.707Z,54.2
2017-09-27T01:24:47.122Z,53.9
2017-09-27T01:25:48.537Z,54.1
2017-09-27T01:26:49.958Z,54.1
2017-09-27T01:27:51.369Z,53.8
2017-09-27T01:28:52.783Z,54.1
2017-09-27T01:29:54.201Z,53.9
2017-09-27T01:30:55.625Z,53.6
2017-09-27T01:31:57.045Z,53.9
2017-09-27T01:32:58.457Z,54.0
2017-09-27T01:33:59.873Z,54.0
2017-09-27T01:35:01.292Z,54.1
2017-09-27T01:36:02.706Z,54.0
2017-09-27T01:37:04.123Z,54.0
2017-09-27T01:38:05.537Z,53.8
2017-09-27T01:39:06.957Z,53.7
2017-09-27T01:40:08.389Z,54.1
2017-09-27T01:41:09.806Z,54.0
2017-09-27T01:42:11.224Z,54.2
2017-09-27T01:43:12.642Z,54.1
2017-09-27T01:44:14.062Z,53.9
2017-09-27T01:45:15.480Z,54.1
2017-09-27T01:46:16.896Z,54.1
2017-09-27T01:47:18.312Z,54.1
2017-09-27T01:48:19.727Z,54.3
2017-09-27T01:49:21.145Z,54.1
2017-09-27T01:50:22.560Z,54.5
2017-09-27T01:51:23.977Z,54.2
2017-09-27T01:52:25.395Z,54.1
2017-09-27T01:53:26.810Z,53.9
2017-09-27T01:54:28.230Z,53.9
2017-09-27T01:55:29.645Z,54.2
2017-09-27T01:56:31.061Z,54.0
2017-09-27T01:57:32.480Z,54.1
2017-09-27T01:58:33.896Z,54.0
2017-09-27T01:59:35.314Z,54.3
2017-09-27T02:00:36.734Z,54.5
2017-09-27T02:01:38.147Z,54.1
2017-09-27T02:02:39.564Z,54.1
2017-09-27T02:03:40.980Z,54.3
2017-09-27T02:04:42.396Z,54.3
2017-09-27T02:05:43.819Z,54.5
2017-09-27T02:06:45.242Z,54.3
2017-09-27T02:07:46.658Z,54.2
2017-09-27T02:08:48.077Z,54.4
2017-09-27T02:09:49.497Z,54.1
2017-09-27T02:10:50.917Z,54.3
2017-09-27T02:11:52.335Z,54.8
2017-09-27T02:12:53.751Z,55.0
2017-09-27T02:13:55.168Z,54.8
2017-09-27T02:14:56.582Z,54.5
2017-09-27T02:15:58.000Z,54.6
2017-09-27T02:16:59.415Z,54.9
2017-09-27T02:18:00.835Z,54.6
2017-09-27T02:19:02.250Z,54.5
2017-09-27T02:20:03.668Z,54.7
2017-09-27T02:21:05.083Z,54.6
2017-09-27T02:22:06.500Z,54.7
2017-09-27T02:23:07.916Z,54.5
2017-09-27T02:24:09.332Z,54.5
2017-09-27T02:25:10.752Z,54.7
2017-09-27T02:26:12.164Z,54.6
2017-09-27T02:27:13.586Z,54.6
2017-09-27T02:28:15.007Z,54.3
2017-09-27T02:29:16.419Z,54.5
2017-09-27T02:30:17.837Z,54.6
2017-09-27T02:31:19.251Z,54.4
2017-09-27T02:32:20.672Z,54.4
2017-09-27T02:33:22.091Z,54.8
2017-09-27T02:34:23.508Z,55.0
2017-09-27T02:35:24.930Z,54.7
2017-09-27T02:36:26.346Z,54.9
2017-09-27T02:37:27.760Z,54.7
2017-09-27T02:38:29.177Z,55.0
2017-09-27T02:39:30.599Z,55.0
2017-09-27T02:40:32.013Z,55.0
2017-09-27T02:41:33.429Z,54.7
2017-09-27T02:42:34.845Z,55.0
2017-09-27T02:43:36.262Z,54.5
2017-09-27T02:44:37.678Z,54.7
2017-09-27T02:45:39.098Z,54.8
2017-09-27T02:46:40.517Z,54.9
2017-09-27T02:47:41.934Z,54.9
2017-09-27T02:48:43.486Z,55.0
2017-09-27T02:49:44.904Z,54.5
2017-09-27T02:50:46.323Z,54.8
2017-09-27T02:51:47.749Z,54.8
2017-09-27T02:52:49.157Z,54.6
2017-09-27T02:53:50.574Z,54.6
2017-09-27T02:54:51.989Z,54.8
2017-09-27T02:55:53.403Z,54.7
2017-09-27T02:56:54.819Z,54.8
2017-09-27T02:57:56.235Z,54.7
2017-09-27T02:58:57.652Z,54.9
2017-09-27T02:59:59.070Z,54.8
2017-09-27T03:01:00.488Z,54.7
2017-09-27T03:02:01.907Z,54.8
2017-09-27T03:03:03.324Z,54.7
2017-09-27T03:04:04.739Z,55.0
2017-09-27T03:05:06.158Z,54.6
2017-09-27T03:06:07.575Z,55.0
2017-09-27T03:07:08.991Z,54.9
2017-09-27T03:08:10.407Z,54.9
2017-09-27T03:09:11.823Z,55.0
2017-09-27T03:10:13.237Z,54.6
2017-09-27T03:11:14.655Z,54.6
2017-09-27T03:12:16.072Z,54.7
2017-09-27T03:13:17.488Z,54.7
2017-09-27T03:14:18.903Z,54.7
2017-09-27T03:15:20.319Z,54.8
2017-09-27T03:16:21.738Z,54.9
2017-09-27T03:17:23.154Z,55.1
2017-09-27T03:18:24.575Z,54.9
2017-09-27T03:19:26.002Z,54.9
2017-09-27T03:20:27.414Z,54.9
2017-09-27T03:21:28.833Z,54.8
2017-09-27T03:22:30.257Z,54.9
2017-09-27T03:23:31.663Z,55.1
2017-09-27T03:24:33.079Z,54.8
2017-09-27T03:25:34.494Z,54.8
2017-09-27T03:26:35.911Z,54.9
2017-09-27T03:27:37.325Z,54.8
2017-09-27T03:28:38.747Z,54.9
2017-09-27T03:29:40.157Z,54.9
2017-09-27T03:30:41.575Z,55.1
2017-09-27T03:31:42.991Z,55.4
2017-09-27T03:32:44.408Z,55.1
2017-09-27T03:33:45.825Z,54.7
2017-09-27T03:34:47.241Z,54.9
2017-09-27T03:35:48.657Z,55.0
2017-09-27T03:36:50.071Z,55.5
2017-09-27T03:37:51.487Z,55.0
2017-09-27T03:38:52.904Z,54.9
2017-09-27T03:39:54.319Z,55.1
2017-09-27T03:40:55.733Z,55.1
2017-09-27T03:41:57.153Z,55.4
2017-09-27T03:42:58.570Z,55.8
2017-09-27T03:43:59.987Z,55.3
2017-09-27T03:45:01.402Z,55.7
2017-09-27T03:46:02.826Z,55.6
2017-09-27T03:47:04.233Z,55.2
2017-09-27T03:48:05.652Z,55.3
2017-09-27T03:49:07.065Z,55.2
2017-09-27T03:50:08.475Z,55.2
2017-09-27T03:51:09.901Z,55.7
2017-09-27T03:52:11.318Z,55.8
2017-09-27T03:53:12.733Z,55.7
2017-09-27T03:54:14.151Z,55.8
2017-09-27T03:55:15.568Z,55.8
2017-09-27T03:56:16.986Z,55.9
2017-09-27T03:57:18.404Z,55.9
2017-09-27T03:58:19.821Z,55.9
2017-09-27T03:59:21.238Z,55.5
2017-09-27T04:00:22.651Z,55.7
2017-09-27T04:01:24.073Z,55.4
2017-09-27T04:02:25.492Z,55.2
2017-09-27T04:03:26.906Z,55.9
2017-09-27T04:04:28.326Z,55.6
2017-09-27T04:05:29.742Z,55.2
2017-09-27T04:06:31.161Z,55.7
2017-09-27T04:07:32.580Z,55.9
2017-09-27T04:08:33.996Z,55.7
2017-09-27T04:09:35.414Z,55.4
2017-09-27T04:10:36.830Z,55.3
2017-09-27T04:11:38.245Z,55.7
2017-09-27T04:12:39.664Z,55.6
2017-09-27T04:13:41.078Z,55.3
2017-09-27T04:14:42.495Z,55.8
2017-09-27T04:15:43.913Z,55.6
2017-09-27T04:16:45.330Z,55.4
2017-09-27T04:17:46.751Z,55.4
2017-09-27T04:18:48.168Z,55.4
2017-09-27T04:19:49.586Z,55.3
2017-09-27T04:20:51.005Z,55.4
2017-09-27T04:21:52.418Z,55.5
2017-09-27T04:22:53.835Z,55.7
2017-09-27T04:23:55.248Z,55.7
2017-09-27T04:24:56.687Z,55.5
2017-09-27T04:25:58.104Z,55.4
2017-09-27T04:26:59.522Z,55.4
2017-09-27T04:28:00.940Z,55.3
2017-09-27T04:29:02.368Z,55.6
2017-09-27T04:30:03.782Z,55.5
2017-09-27T04:31:05.199Z,55.5
2017-09-27T04:32:06.614Z,55.5
2017-09-27T04:33:08.031Z,55.7
2017-09-27T04:34:09.446Z,55.5
2017-09-27T04:35:10.863Z,55.8
2017-09-27T04:36:12.280Z,55.6
2017-09-27T04:37:13.699Z,55.6
2017-09-27T04:38:15.114Z,55.9
2017-09-27T04:39:16.529Z,55.7
2017-09-27T04:40:17.990Z,55.6
2017-09-27T04:41:19.406Z,55.8
2017-09-27T04:42:20.822Z,55.6
2017-09-27T04:43:22.238Z,55.9
2017-09-27T04:44:23.663Z,55.4
2017-09-27T04:45:25.068Z,55.9
2017-09-27T04:46:26.484Z,55.7
2017-09-27T04:47:27.900Z,55.7
2017-09-27T04:48:29.314Z,55.6
2017-09-27T04:49:30.731Z,55.5
2017-09-27T04:50:32.143Z,55.6
2017-09-27T04:51:33.561Z,55.7
2017-09-27T04:52:34.975Z,55.7
2017-09-27T04:53:36.391Z,55.6
2017-09-27T04:54:37.808Z,55.7
2017-09-27T04:55:39.223Z,55.7
2017-09-27T04:56:40.640Z,55.6
2017-09-27T04:57:42.054Z,55.8
2017-09-27T04:58:43.569Z,56.0
2017-09-27T04:59:44.987Z,55.8
2017-09-27T05:00:46.407Z,56.2
2017-09-27T05:01:47.833Z,56.1
2017-09-27T05:02:49.250Z,55.7
2017-09-27T05:03:50.664Z,55.4
2017-09-27T05:04:52.079Z,55.8
2017-09-27T05:05:53.497Z,55.8
2017-09-27T05:06:54.914Z,55.9
2017-09-27T05:07:56.327Z,56.2
2017-09-27T05:08:57.744Z,55.7
2017-09-27T05:09:59.157Z,56.1
2017-09-27T05:11:00.577Z,56.1
2017-09-27T05:12:01.994Z,55.8
2017-09-27T05:13:03.409Z,56.0
2017-09-27T05:14:04.834Z,56.2
2017-09-27T05:15:06.253Z,56.2
2017-09-27T05:16:07.672Z,56.1
2017-09-27T05:17:09.087Z,56.0
2017-09-27T05:18:10.503Z,56.1
2017-09-27T05:19:11.919Z,56.2
2017-09-27T05:20:13.337Z,56.1
2017-09-27T05:21:14.756Z,56.3
2017-09-27T05:22:16.168Z,56.1
2017-09-27T05:23:17.586Z,56.3
2017-09-27T05:24:19.013Z,56.1
2017-09-27T05:25:20.425Z,56.5
2017-09-27T05:26:21.846Z,55.9
2017-09-27T05:27:23.258Z,56.4
2017-09-27T05:28:24.672Z,56.4
2017-09-27T05:29:26.089Z,56.1
2017-09-27T05:30:27.503Z,56.5
2017-09-27T05:31:28.964Z,56.3
2017-09-27T05:32:30.413Z,56.1
2017-09-27T05:33:31.824Z,56.1
2017-09-27T05:34:33.243Z,56.4
2017-09-27T05:35:34.660Z,56.5
2017-09-27T05:36:36.109Z,56.3
2017-09-27T05:37:37.493Z,56.4
2017-09-27T05:38:38.907Z,56.0
2017-09-27T05:39:40.324Z,56.2
2017-09-27T05:40:41.734Z,56.4
2017-09-27T05:41:43.159Z,56.5
2017-09-27T05:42:44.575Z,56.2
2017-09-27T05:43:45.993Z,56.3
2017-09-27T05:44:47.411Z,56.2
2017-09-27T05:45:48.830Z,56.3
2017-09-27T05:46:50.247Z,56.4
2017-09-27T05:47:51.662Z,56.3
2017-09-27T05:48:53.082Z,56.2
2017-09-27T05:49:54.497Z,56.2
2017-09-27T05:50:55.917Z,56.5
2017-09-27T05:51:57.331Z,56.2
2017-09-27T05:52:58.746Z,56.3
2017-09-27T05:54:00.166Z,56.2
2017-09-27T05:55:01.581Z,56.2
2017-09-27T05:56:03.002Z,56.3
2017-09-27T05:57:04.419Z,56.3
2017-09-27T05:58:05.834Z,56.2
2017-09-27T05:59:07.249Z,56.6
2017-09-27T06:00:08.679Z,56.3
2017-09-27T06:01:10.099Z,56.5
2017-09-27T06:02:11.523Z,56.6
2017-09-27T06:03:13.189Z,56.5
2017-09-27T06:04:14.606Z,56.3
2017-09-27T06:05:16.023Z,56.6
2017-09-27T06:06:17.442Z,56.2
2017-09-27T06:07:18.857Z,56.5
2017-09-27T06:08:20.272Z,56.4
2017-09-27T06:09:21.691Z,56.6
2017-09-27T06:10:23.109Z,56.6
2017-09-27T06:11:24.530Z,56.5
2017-09-27T06:12:25.945Z,56.5
2017-09-27T06:13:27.364Z,56.3
2017-09-27T06:14:28.780Z,56.3
2017-09-27T06:15:30.195Z,56.4
2017-09-27T06:16:31.613Z,56.5
2017-09-27T06:17:33.031Z,56.3
2017-09-27T06:18:34.449Z,56.5
2017-09-27T06:19:35.867Z,56.5
2017-09-27T06:20:37.289Z,56.6
2017-09-27T06:21:38.700Z,56.6
2017-09-27T06:22:40.122Z,56.7
2017-09-27T06:23:41.539Z,56.6
2017-09-27T06:24:42.955Z,56.7
2017-09-27T06:25:44.378Z,56.5
2017-09-27T06:26:45.799Z,56.5
2017-09-27T06:27:47.213Z,56.5
2017-09-27T06:28:48.633Z,56.4
2017-09-27T06:29:50.048Z,56.5
2017-09-27T06:30:51.469Z,56.8
2017-09-27T06:31:52.886Z,56.4
2017-09-27T06:32:54.303Z,56.4
2017-09-27T06:33:55.726Z,56.5
2017-09-27T06:34:57.141Z,56.5
2017-09-27T06:35:58.555Z,56.4
2017-09-27T06:36:59.981Z,56.5
2017-09-27T06:38:01.394Z,56.6
2017-09-27T06:39:02.824Z,56.4
2017-09-27T06:40:04.236Z,56.7
2017-09-27T06:41:05.648Z,56.6
2017-09-27T06:42:07.068Z,56.4
2017-09-27T06:43:08.489Z,56.3
2017-09-27T06:44:09.905Z,56.4
2017-09-27T06:45:11.324Z,56.5
2017-09-27T06:46:12.741Z,56.6
2017-09-27T06:47:14.163Z,56.5
2017-09-27T06:48:15.581Z,56.6
2017-09-27T06:49:16.998Z,56.6
2017-09-27T06:50:18.415Z,56.6
2017-09-27T06:51:19.831Z,56.6
2017-09-27T06:52:21.249Z,56.3
2017-09-27T06:53:22.667Z,56.2
2017-09-27T06:54:24.082Z,56.6
2017-09-27T06:55:25.502Z,56.4
2017-09-27T06:56:26.956Z,56.4
2017-09-27T06:57:28.337Z,56.4
2017-09-27T06:58:29.752Z,56.4
2017-09-27T06:59:31.168Z,56.4
2017-09-27T07:00:32.586Z,56.5
2017-09-27T07:01:34.016Z,56.2
2017-09-27T07:02:35.433Z,56.2
2017-09-27T07:03:36.851Z,56.4
2017-09-27T07:04:38.268Z,56.1
2017-09-27T07:05:39.684Z,56.2
2017-09-27T07:06:41.101Z,56.4
2017-09-27T07:07:42.524Z,56.1
2017-09-27T07:08:43.985Z,56.4
2017-09-27T07:09:45.431Z,56.2
2017-09-27T07:10:46.850Z,56.4
2017-09-27T07:11:48.270Z,56.4
2017-09-27T07:12:49.685Z,56.5
2017-09-27T07:13:51.102Z,56.6
2017-09-27T07:14:52.520Z,56.3
2017-09-27T07:15:53.934Z,56.4
2017-09-27T07:16:55.350Z,56.5
2017-09-27T07:17:56.775Z,56.3
2017-09-27T07:18:58.193Z,56.2
2017-09-27T07:19:59.654Z,56.2
2017-09-27T07:21:01.067Z,56.3
2017-09-27T07:22:02.487Z,56.3
2017-09-27T07:23:03.915Z,56.2
2017-09-27T07:24:06.090Z,56.4
2017-09-27T07:25:07.526Z,56.0
2017-09-27T07:26:08.939Z,56.0
2017-09-27T07:27:10.356Z,56.4
2017-09-27T07:28:11.773Z,56.3
2017-09-27T07:29:13.190Z,56.4
2017-09-27T07:30:14.611Z,56.4
2017-09-27T07:31:16.031Z,56.3
2017-09-27T07:32:17.449Z,56.3
2017-09-27T07:33:18.865Z,56.2
2017-09-27T07:34:20.286Z,56.1
2017-09-27T07:35:21.700Z,56.3
2017-09-27T07:36:23.120Z,56.1
2017-09-27T07:37:24.541Z,56.1
2017-09-27T07:38:25.953Z,56.0
2017-09-27T07:39:27.372Z,56.1
2017-09-27T07:40:28.790Z,56.0
2017-09-27T07:41:30.205Z,56.2
2017-09-27T07:42:31.621Z,56.1
2017-09-27T07:43:33.039Z,56.2
2017-09-27T07:44:34.455Z,56.1
2017-09-27T07:45:35.885Z,56.0
2017-09-27T07:46:37.319Z,56.0
2017-09-27T07:47:38.736Z,56.1
2017-09-27T07:48:40.154Z,56.0
2017-09-27T07:49:41.578Z,56.1
2017-09-27T07:50:42.991Z,56.2
2017-09-27T07:51:44.406Z,56.0
2017-09-27T07:52:45.827Z,55.9
2017-09-27T07:53:47.244Z,55.8
2017-09-27T07:54:48.662Z,55.9
2017-09-27T07:55:50.086Z,55.9
2017-09-27T07:56:51.504Z,56.2
2017-09-27T07:57:52.920Z,56.1
2017-09-27T07:58:54.341Z,56.0
2017-09-27T07:59:55.753Z,56.4
2017-09-27T08:00:57.171Z,56.0
2017-09-27T08:01:58.589Z,56.4
2017-09-27T08:03:00.016Z,56.3
2017-09-27T08:04:01.440Z,56.2
2017-09-27T08:05:02.858Z,56.3
2017-09-27T08:06:04.284Z,56.2
2017-09-27T08:07:05.702Z,55.8
2017-09-27T08:08:07.126Z,55.7
2017-09-27T08:09:08.537Z,55.8
2017-09-27T08:10:09.953Z,55.7
2017-09-27T08:11:11.376Z,55.6
2017-09-27T08:12:12.789Z,55.9
2017-09-27T08:13:14.209Z,55.5
2017-09-27T08:14:15.625Z,55.7
2017-09-27T08:15:17.040Z,55.7
2017-09-27T08:16:18.457Z,55.7
2017-09-27T08:17:19.878Z,55.5
2017-09-27T08:18:21.294Z,55.8
2017-09-27T08:19:22.713Z,55.7
2017-09-27T08:20:24.134Z,55.5
2017-09-27T08:21:25.552Z,55.8
2017-09-27T08:22:26.989Z,55.6
2017-09-27T08:23:28.404Z,55.6
2017-09-27T08:24:29.820Z,55.6
2017-09-27T08:25:31.238Z,55.8
2017-09-27T08:26:32.657Z,55.5
2017-09-27T08:27:34.078Z,55.5
2017-09-27T08:28:35.497Z,55.7
2017-09-27T08:29:36.915Z,55.7
2017-09-27T08:30:38.334Z,55.5
2017-09-27T08:31:39.752Z,55.4
2017-09-27T08:32:41.168Z,55.5
2017-09-27T08:33:42.588Z,55.3
2017-09-27T08:34:44.006Z,55.6
2017-09-27T08:35:45.423Z,55.7
2017-09-27T08:36:46.842Z,55.5
2017-09-27T08:37:48.257Z,55.2
2017-09-27T08:38:49.709Z,55.4
2017-09-27T08:39:51.089Z,55.7
2017-09-27T08:40:52.522Z,55.3
2017-09-27T08:41:53.931Z,55.7
2017-09-27T08:42:55.348Z,55.6
2017-09-27T08:43:56.765Z,55.1
2017-09-27T08:44:58.183Z,55.7
2017-09-27T08:45:59.602Z,55.9
2017-09-27T08:47:01.020Z,55.2
2017-09-27T08:48:02.441Z,55.1
2017-09-27T08:49:03.857Z,55.0
2017-09-27T08:50:05.277Z,55.2
2017-09-27T08:51:06.696Z,55.4
2017-09-27T08:52:08.114Z,55.4
2017-09-27T08:53:09.536Z,55.4
2017-09-27T08:54:10.946Z,54.7
2017-09-27T08:55:12.365Z,54.6
2017-09-27T08:56:13.783Z,55.2
2017-09-27T08:57:15.202Z,54.9
2017-09-27T08:58:16.617Z,55.0
2017-09-27T08:59:18.032Z,55.1
2017-09-27T09:00:19.463Z,55.1
2017-09-27T09:01:20.882Z,55.1
2017-09-27T09:02:22.302Z,54.9
2017-09-27T09:03:23.723Z,55.2
2017-09-27T09:04:25.141Z,54.9
2017-09-27T09:05:26.557Z,54.9
2017-09-27T09:06:27.972Z,54.9
2017-09-27T09:07:29.393Z,54.9
2017-09-27T09:08:30.810Z,55.0
2017-09-27T09:09:32.229Z,54.7
2017-09-27T09:10:33.645Z,54.7
2017-09-27T09:11:35.068Z,54.6
2017-09-27T09:12:36.490Z,54.8
2017-09-27T09:13:37.910Z,55.1
2017-09-27T09:14:39.328Z,54.6
2017-09-27T09:15:40.749Z,54.8
2017-09-27T09:16:42.167Z,54.8
2017-09-27T09:17:43.589Z,54.8
2017-09-27T09:18:45.005Z,54.6
2017-09-27T09:19:46.424Z,54.9
2017-09-27T09:20:47.839Z,54.8
2017-09-27T09:21:49.258Z,54.8
2017-09-27T09:22:50.674Z,54.7
2017-09-27T09:23:52.099Z,55.0
2017-09-27T09:24:53.516Z,55.1
2017-09-27T09:25:54.945Z,55.1
2017-09-27T09:26:56.356Z,54.6
2017-09-27T09:27:57.776Z,54.9
2017-09-27T09:28:59.194Z,55.1
2017-09-27T09:30:00.614Z,54.6
2017-09-27T09:31:02.038Z,54.7
2017-09-27T09:32:03.456Z,54.6
2017-09-27T09:33:04.872Z,54.5
2017-09-27T09:34:06.284Z,54.7
2017-09-27T09:35:07.707Z,54.7
2017-09-27T09:36:09.127Z,54.7
2017-09-27T09:37:10.542Z,54.5
2017-09-27T09:38:11.972Z,54.4
2017-09-27T09:39:13.380Z,54.4
2017-09-27T09:40:14.800Z,54.4
2017-09-27T09:41:16.220Z,54.6
2017-09-27T09:42:17.638Z,54.3
2017-09-27T09:43:19.055Z,54.6
2017-09-27T09:44:20.484Z,54.4
2017-09-27T09:45:21.901Z,54.5
2017-09-27T09:46:23.320Z,54.4
2017-09-27T09:47:24.741Z,54.4
2017-09-27T09:48:26.162Z,54.7
2017-09-27T09:49:27.582Z,54.5
2017-09-27T09:50:29.012Z,54.7
2017-09-27T09:51:30.428Z,54.6
2017-09-27T09:52:31.846Z,54.3
2017-09-27T09:53:33.264Z,54.6
2017-09-27T09:54:34.681Z,54.5
2017-09-27T09:55:36.104Z,55.0
2017-09-27T09:56:37.524Z,54.8
2017-09-27T09:57:38.937Z,55.0
2017-09-27T09:58:40.358Z,54.9
2017-09-27T09:59:41.776Z,54.9
2017-09-27T10:00:43.194Z,54.6
2017-09-27T10:01:44.607Z,54.5
2017-09-27T10:02:46.030Z,54.9
2017-09-27T10:03:47.450Z,54.9
2017-09-27T10:04:48.874Z,55.2
2017-09-27T10:05:50.293Z,55.8
2017-09-27T10:06:51.714Z,55.3
2017-09-27T10:07:53.129Z,55.8
2017-09-27T10:08:54.551Z,55.2
2017-09-27T10:09:55.971Z,55.9
2017-09-27T10:10:57.392Z,55.6
2017-09-27T10:11:58.823Z,55.5
2017-09-27T10:13:00.247Z,55.5
2017-09-27T10:14:01.666Z,55.7
2017-09-27T10:15:03.126Z,55.2
2017-09-27T10:16:04.553Z,55.4
2017-09-27T10:17:05.969Z,55.5
2017-09-27T10:18:07.387Z,55.5
2017-09-27T10:19:08.812Z,55.4
2017-09-27T10:20:10.231Z,55.5
2017-09-27T10:21:11.653Z,55.5
2017-09-27T10:22:13.074Z,55.7
2017-09-27T10:23:14.495Z,55.7
2017-09-27T10:24:15.915Z,55.8
2017-09-27T10:25:17.333Z,55.6
2017-09-27T10:26:18.753Z,55.6
2017-09-27T10:27:20.173Z,55.8
2017-09-27T10:28:21.594Z,55.9
2017-09-27T10:29:23.016Z,55.7
2017-09-27T10:30:24.435Z,55.3
2017-09-27T10:31:25.860Z,55.5
2017-09-27T10:32:27.279Z,56.0
2017-09-27T10:33:28.701Z,55.4
2017-09-27T10:34:30.123Z,55.2
2017-09-27T10:35:31.544Z,55.9
2017-09-27T10:36:32.964Z,55.4
2017-09-27T10:37:34.381Z,55.7
2017-09-27T10:38:35.803Z,54.9
2017-09-27T10:39:37.224Z,54.8
2017-09-27T10:40:38.646Z,54.8
2017-09-27T10:41:40.066Z,55.3
2017-09-27T10:42:41.484Z,55.0
2017-09-27T10:43:42.906Z,54.8
2017-09-27T10:44:44.325Z,54.8
2017-09-27T10:45:45.750Z,54.5
2017-09-27T10:46:47.168Z,54.7
2017-09-27T10:47:48.609Z,55.0
2017-09-27T10:48:50.010Z,55.0
2017-09-27T10:49:51.431Z,54.5
2017-09-27T10:50:52.852Z,54.5
2017-09-27T10:51:54.272Z,54.8
2017-09-27T10:52:55.720Z,55.1
2017-09-27T10:53:57.114Z,54.5
2017-09-27T10:54:58.534Z,54.2
2017-09-27T10:55:59.955Z,54.5
2017-09-27T10:57:01.374Z,54.6
2017-09-27T10:58:02.785Z,54.4
2017-09-27T10:59:04.214Z,54.3
2017-09-27T11:00:05.637Z,54.5
2017-09-27T11:01:07.062Z,54.4
2017-09-27T11:02:08.484Z,54.1
2017-09-27T11:03:09.908Z,54.2
2017-09-27T11:04:11.326Z,54.2
2017-09-27T11:05:12.746Z,54.3
2017-09-27T11:06:14.168Z,54.1
2017-09-27T11:07:15.588Z,54.0
2017-09-27T11:08:17.008Z,54.1
2017-09-27T11:09:18.427Z,54.0
2017-09-27T11:10:19.854Z,53.7
2017-09-27T11:11:21.281Z,54.0
2017-09-27T11:12:22.697Z,54.2
2017-09-27T11:13:24.121Z,53.9
2017-09-27T11:14:25.544Z,53.5
2017-09-27T11:15:26.968Z,54.0
2017-09-27T11:16:28.385Z,53.8
2017-09-27T11:17:29.807Z,53.8
2017-09-27T11:18:31.230Z,53.9
2017-09-27T11:19:32.651Z,54.2
2017-09-27T11:20:34.073Z,53.3
2017-09-27T11:21:35.496Z,53.3
2017-09-27T11:22:36.918Z,53.7
2017-09-27T11:23:38.340Z,53.4
2017-09-27T11:24:39.767Z,53.6
2017-09-27T11:25:41.190Z,53.7
2017-09-27T11:26:42.606Z,53.1
2017-09-27T11:27:44.028Z,53.5
2017-09-27T11:28:45.449Z,53.7
2017-09-27T11:29:46.873Z,53.7
2017-09-27T11:30:48.294Z,53.6
2017-09-27T11:31:49.719Z,53.1
2017-09-27T11:32:51.138Z,53.4
2017-09-27T11:33:52.559Z,53.1
2017-09-27T11:34:53.977Z,53.0
2017-09-27T11:35:55.399Z,52.7
2017-09-27T11:36:56.823Z,53.0
2017-09-27T11:37:58.267Z,53.1
2017-09-27T11:38:59.686Z,52.7
2017-09-27T11:40:01.109Z,52.6
2017-09-27T11:41:02.543Z,52.8
2017-09-27T11:42:03.959Z,52.5
2017-09-27T11:43:05.382Z,52.7
2017-09-27T11:44:06.802Z,52.7
2017-09-27T11:45:08.224Z,52.8
2017-09-27T11:46:09.642Z,52.5
2017-09-27T11:47:11.053Z,52.6
2017-09-27T11:48:12.491Z,52.7
2017-09-27T11:49:13.913Z,52.7
2017-09-27T11:50:15.333Z,52.6
2017-09-27T11:51:16.757Z,52.1
2017-09-27T11:52:18.177Z,52.1
2017-09-27T11:53:19.598Z,52.1
2017-09-27T11:54:21.020Z,52.2
2017-09-27T11:55:22.442Z,52.3
2017-09-27T11:56:23.863Z,51.8
2017-09-27T11:57:25.286Z,52.1
2017-09-27T11:58:26.710Z,52.0
2017-09-27T11:59:28.133Z,52.1
2017-09-27T12:00:29.556Z,52.1
2017-09-27T12:01:30.979Z,52.0
2017-09-27T12:02:32.401Z,52.0
2017-09-27T12:03:33.822Z,52.1
2017-09-27T12:04:35.247Z,51.8
2017-09-27T12:05:36.668Z,52.1
2017-09-27T12:06:38.090Z,51.8
2017-09-27T12:07:39.510Z,51.9
2017-09-27T12:08:40.936Z,52.1
2017-09-27T12:09:42.358Z,51.7
2017-09-27T12:10:43.779Z,51.5
2017-09-27T12:11:45.201Z,51.6
2017-09-27T12:12:46.623Z,51.3
2017-09-27T12:13:48.044Z,51.7
2017-09-27T12:14:49.465Z,51.4
2017-09-27T12:15:50.885Z,51.0
2017-09-27T12:16:52.308Z,51.1
2017-09-27T12:17:53.729Z,51.7
2017-09-27T12:18:55.154Z,51.1
2017-09-27T12:19:56.570Z,51.3
2017-09-27T12:20:57.994Z,51.6
2017-09-27T12:21:59.420Z,51.9
2017-09-27T12:23:00.838Z,50.7
2017-09-27T12:24:02.261Z,51.4
2017-09-27T12:25:03.682Z,51.2
2017-09-27T12:26:05.103Z,51.0
2017-09-27T12:27:06.527Z,51.1
2017-09-27T12:28:07.946Z,51.1
2017-09-27T12:29:09.369Z,51.0
2017-09-27T12:30:10.790Z,51.2
2017-09-27T12:31:12.209Z,50.9
2017-09-27T12:32:13.631Z,50.8
2017-09-27T12:33:15.102Z,50.9
2017-09-27T12:34:16.487Z,50.9
2017-09-27T12:35:17.910Z,51.0
2017-09-27T12:36:19.332Z,50.9
2017-09-27T12:37:20.755Z,50.5
2017-09-27T12:38:22.175Z,50.8
2017-09-27T12:39:23.599Z,50.6
2017-09-27T12:40:25.021Z,50.5
2017-09-27T12:41:26.443Z,50.5
2017-09-27T12:42:27.893Z,50.6
2017-09-27T12:43:29.315Z,50.8
2017-09-27T12:44:30.734Z,50.7
2017-09-27T12:45:32.158Z,50.4
2017-09-27T12:46:33.597Z,50.2
2017-09-27T12:47:35.022Z,50.4
2017-09-27T12:48:36.440Z,50.4
2017-09-27T12:49:37.861Z,50.4
2017-09-27T12:50:39.284Z,50.3
2017-09-27T12:51:40.708Z,50.3
2017-09-27T12:52:42.129Z,50.5
2017-09-27T12:53:43.548Z,50.4
2017-09-27T12:54:44.972Z,50.3
2017-09-27T12:55:46.393Z,50.6
2017-09-27T12:56:47.814Z,49.6
2017-09-27T12:57:49.236Z,50.2
2017-09-27T12:58:50.664Z,49.7
2017-09-27T12:59:52.087Z,49.8
2017-09-27T13:00:53.510Z,50.0
2017-09-27T13:01:54.934Z,50.2
2017-09-27T13:02:56.355Z,49.3
2017-09-27T13:03:57.778Z,49.8
2017-09-27T13:04:59.199Z,49.5
2017-09-27T13:06:00.654Z,49.6
2017-09-27T13:07:02.078Z,49.4
2017-09-27T13:08:03.500Z,49.4
2017-09-27T13:09:04.923Z,49.6
2017-09-27T13:10:06.342Z,49.3
2017-09-27T13:11:07.764Z,49.2
2017-09-27T13:12:09.189Z,49.5
2017-09-27T13:13:10.612Z,49.5
2017-09-27T13:14:12.038Z,49.5
2017-09-27T13:15:13.470Z,49.0
2017-09-27T13:16:14.896Z,49.5
2017-09-27T13:17:16.315Z,49.4
2017-09-27T13:18:17.742Z,49.5
2017-09-27T13:19:19.159Z,49.0
2017-09-27T13:20:20.582Z,49.2
2017-09-27T13:21:22.013Z,49.6
2017-09-27T13:22:23.430Z,49.2
2017-09-27T13:23:24.853Z,49.0
2017-09-27T13:24:26.284Z,49.5
2017-09-27T13:25:27.704Z,49.1
2017-09-27T13:26:29.127Z,49.5
2017-09-27T13:27:30.553Z,49.5
2017-09-27T13:28:31.972Z,49.5
2017-09-27T13:29:33.398Z,49.5
2017-09-27T13:30:34.823Z,49.5
2017-09-27T13:31:36.245Z,49.5
2017-09-27T13:32:37.668Z,49.7
2017-09-27T13:33:39.091Z,49.6
2017-09-27T13:34:40.515Z,49.0
2017-09-27T13:35:41.937Z,49.7
2017-09-27T13:36:43.360Z,49.2
2017-09-27T13:37:44.782Z,49.3